• Join FlightAware (Why Join?)
  • Login
  • US Flag 
06:47AM EDT


 

Airport Tracker/Info


-or-


 

Live Flight TrackerFlight Track Log ✈ DAL2369 ✈ 17-Jun-2013 ✈ KATL - KMCO

Flight Track Log - Related Links

Times and Time Zones

All times are in EDT time to prevent confusion due to time zone crossing. See the DAL2369 flight status page for this flight to view local times or setup timezone preferences in your user account.

Time Position Orientation Groundspeed Altitude Reporting Facility
EDT Latitude Longitude Course Direction KTS MPH feet Rate Location/Type
01:09PM 33.6167 -84.5000 160° South 203 234 3,500  Level Atlanta TRACON
01:10PM 33.5969 -84.5825 254° West 357 411 6,800 2,880 Climbing Atlanta Center
01:11PM 33.3802 -84.2659 168° South  Level FlightAware Approximate
01:11PM 33.5528 -84.6344 224° Southwest 278 320 9,500  Level Atlanta Center
01:12PM 33.2648 -84.2370 168° South  Level FlightAware Approximate
01:12PM 33.4778 -84.5867 152° Southeast 226 260 10,000  Level Atlanta Center
01:13PM 33.1493 -84.2081 168° South  Level FlightAware Approximate
01:13PM 33.4133 -84.5317 145° Southeast 251 289 11,000  Level Atlanta Center
01:14PM 33.0334 -84.1833 180° South  Level FlightAware Approximate
01:14PM 33.3364 -84.4639 144° Southeast 298 343 12,800  Level Atlanta Center
01:15PM 32.9212 -84.1403 160° South  Level FlightAware Approximate
01:15PM 33.2553 -84.3917 143° Southeast 357 411 15,500  Level Atlanta Center
01:16PM 33.1656 -84.3167 145° Southeast 386 444 17,900 2,340 Climbing Atlanta Center
01:17PM 33.0739 -84.2397 145° Southeast 403 464 20,200 1,620 Climbing Atlanta Center
01:18PM 32.9717 -84.1625 148° Southeast 414 476 21,200 1,500 Climbing Atlanta Center
01:19PM 32.8508 -84.1106 160° South 439 505 23,200 1,800 Climbing Atlanta Center
01:20PM 32.7275 -84.0611 161° South 458 527 24,900 1,620 Climbing Atlanta Center
01:21PM 32.6044 -84.0067 160° South 469 540 26,500 1,560 Climbing Atlanta Center
01:23PM 32.3483 -83.9058 162° South 483 556 29,600 1,560 Climbing Jacksonville Center
01:24PM 32.2192 -83.8528 161° South 483 556 31,300 1,560 Climbing Jacksonville Center
01:25PM 32.0922 -83.8025 161° South 483 556 32,800 840 Climbing Jacksonville Center
01:26PM 31.9633 -83.7497 161° South 489 563 33,000  Climbing Jacksonville Center
01:27PM 31.8281 -83.6825 157° South 484 557 32,900  Descending Jacksonville Center
01:28PM 31.7114 -83.6033 150° Southeast 484 557 33,000  Climbing Jacksonville Center
01:29PM 31.5867 -83.5217 151° Southeast 496 571 33,000  Level Jacksonville Center
01:30PM 31.4700 -83.4431 150° Southeast 496 571 33,000  Level Jacksonville Center
01:31PM 31.3514 -83.3644 150° Southeast 496 571 33,000 -60 Level Jacksonville Center
01:32PM 31.2367 -83.2886 151° Southeast 490 564 32,900 -720 Descending Jacksonville Center
01:33PM 31.1181 -83.2081 150° Southeast 485 558 31,600 -1,320 Descending Jacksonville Center
01:34PM 31.0011 -83.1325 151° Southeast 485 558 30,300 -1,320 Descending Jacksonville Center
01:35PM 30.8867 -83.0547 150° Southeast 480 552 29,000 -1,380 Descending Jacksonville Center
01:36PM 30.7697 -82.9772 150° Southeast 480 552 27,600 -1,080 Descending Jacksonville Center
01:37PM 30.6653 -82.9094 151° Southeast 480 552 26,900 -300 Descending Jacksonville Center
01:38PM 30.5381 -82.8203 149° Southeast 480 552 27,000  Climbing Jacksonville Center
01:39PM 30.4167 -82.7433 151° Southeast 490 564 27,000  Level Jacksonville Center
01:40PM 30.2975 -82.6617 149° Southeast 490 564 27,000 -480 Level Jacksonville Center
01:41PM 30.1764 -82.5875 152° Southeast 496 571 26,100 -900 Descending Jacksonville Center
01:42PM 30.0592 -82.5133 151° Southeast 496 571 25,300 -600 Descending Jacksonville Center
01:43PM 29.9422 -82.4372 151° Southeast 491 565 25,000 -180 Descending Jacksonville Center
01:44PM 29.8186 -82.3778 157° South 480 552 25,000  Level Jacksonville Center
01:45PM 29.7100 -82.3283 158° South 475 547 25,000 -420 Level Jacksonville Center
01:46PM 29.5864 -82.2669 157° South 475 547 24,200 -1,680 Descending Jacksonville Center
01:47PM 29.4714 -82.2128 158° South 465 535 21,700 -2,460 Descending Jacksonville Center
01:48PM 29.3606 -82.1586 157° South 453 521 19,300 -2,220 Descending Jacksonville Center
01:49PM 29.2558 -82.1094 158° South 431 496 17,300 -2,100 Descending Jacksonville Center
01:50PM 29.1553 -82.0650 159° South 405 466 15,200 -2,160 Descending Jacksonville Center
01:51PM 29.0589 -82.0208 158° South 391 450 13,100 -1,800 Descending Jacksonville Center
01:52PM 28.9772 -81.9858 159° South 357 411 11,700 -1,140 Descending Jacksonville Center
01:53PM 28.8997 -81.9417 153° Southeast 323 372 10,900 -420 Descending Jacksonville Center
01:54PM 28.8472 -81.8756 132° Southeast 290 334 10,900 -480 Level Jacksonville Center
01:55PM 28.8000 -81.8500 155° Southeast 286 329 10,200 -1,080 Descending Orlando TRACON
01:56PM 28.7000 -81.8167 164° South 283 326 9,000 -600 Descending Orlando TRACON
01:57PM 28.6167 -81.8000 170° South 283 326 9,000  Level Orlando TRACON
01:58PM 28.5667 -81.7833 164° South 237 273 9,000 -540 Level Orlando TRACON
01:59PM 28.5000 -81.7667 168° South 240 276 8,000 -540 Descending Orlando TRACON
02:00PM 28.4333 -81.7667 180° South 240 276 8,000  Level Orlando TRACON
02:01PM 28.3667 -81.7500 168° South 244 281 8,000  Level Orlando TRACON
02:02PM 28.3333 -81.8000 233° Southwest 240 276 8,000  Level Orlando TRACON
02:03PM 28.4000 -81.8333 336° Northwest 254 292 8,000  Level Orlando TRACON
02:04PM 28.4667 -81.8333 360° North 251 289 8,000  Level Orlando TRACON
02:05PM 28.5500 -81.8333 360° North 250 288 8,000  Level Orlando TRACON
02:06PM 28.6000 -81.8167 16° North 255 293 8,000  Level Orlando TRACON
02:07PM 28.5833 -81.7500 106° East 238 274 8,000  Level Orlando TRACON
02:08PM 28.5167 -81.7333 168° South 238 274 8,000  Level Orlando TRACON
02:09PM 28.4500 -81.7167 168° South 241 277 8,000  Level Orlando TRACON
02:10PM 28.3833 -81.7167 180° South 242 278 8,000  Level Orlando TRACON
02:11PM 28.3500 -81.7667 233° Southwest 240 276 8,000  Level Orlando TRACON
02:12PM 28.3833 -81.8167 307° West 249 287 8,000  Level Orlando TRACON
02:13PM 28.4500 -81.8167 360° North 253 291 8,100  Climbing Orlando TRACON
02:14PM 28.5167 -81.8333 348° North 257 296 8,100  Level Orlando TRACON
02:15PM 28.5833 -81.8333 360° North 253 291 8,100  Level Orlando TRACON
02:16PM 28.6667 -81.8167 10° North 256 295 8,100  Level Orlando TRACON
02:17PM 28.6667 -81.7500 90° East 252 290 8,100 -420 Level Orlando TRACON
02:18PM 28.6167 -81.7167 150° Southeast 237 273 7,300 -540 Descending Orlando TRACON
02:19PM 28.5500 -81.7000 168° South 236 272 7,100 -120 Descending Orlando TRACON
02:20PM 28.4833 -81.7000 180° South 235 270 7,100  Level Orlando TRACON